Time;durP1;ratioP1;P1;durP2;ratioP2;P2;SDS_P1;SDS_P2;PMS_P1;PMS_P2;Temp;Humidity;BMP_temperature;BMP_pressure;BME280_temperature;BME280_humidity;BME280_pressure;Samples;Min_cycle;Max_cycle;Signal;HPM_P1;HPM_P2
2022/01/09 00:00:29;;;;;;;34.65;5.18;;;7.90;99.90;;;;;;5034330;28;20037;-72
2022/01/09 00:02:55;;;;;;;29.40;4.28;;;7.90;99.90;;;;;;5034807;28;20422;-71
2022/01/09 00:05:21;;;;;;;32.60;4.20;;;7.90;99.90;;;;;;5034814;28;20021;-73
2022/01/09 00:07:47;;;;;;;29.60;4.65;;;7.90;99.90;;;;;;5034672;28;20036;-73
2022/01/09 00:10:14;;;;;;;33.00;5.30;;;7.90;99.90;;;;;;5034142;28;20038;-72
2022/01/09 00:12:40;;;;;;;33.50;4.60;;;7.90;99.90;;;;;;5033860;28;20024;-72
2022/01/09 00:15:06;;;;;;;35.72;4.43;;;7.90;99.90;;;;;;5033082;28;20515;-72
2022/01/09 00:17:32;;;;;;;27.77;4.70;;;7.90;99.90;;;;;;5033296;28;20033;-72
2022/01/09 00:19:58;;;;;;;38.55;5.30;;;7.80;99.90;;;;;;5032581;28;20370;-72
2022/01/09 00:22:39;;;;;;;25.77;4.38;;;7.90;99.90;;;;;;5033264;28;20033;-72
2022/01/09 00:25:05;;;;;;;26.05;3.60;;;7.90;99.90;;;;;;5032361;28;20041;-73
2022/01/09 00:27:31;;;;;;;34.22;4.63;;;7.90;99.90;;;;;;5033632;28;20048;-73
2022/01/09 00:29:57;;;;;;;26.05;4.00;;;7.90;99.90;;;;;;5032974;28;20029;-71
2022/01/09 00:32:23;;;;;;;24.77;5.30;;;7.90;99.90;;;;;;5033849;28;20033;-71
2022/01/09 00:34:48;;;;;;;29.25;4.53;;;7.80;99.90;;;;;;5033998;28;20139;-72
2022/01/09 00:37:14;;;;;;;25.67;4.72;;;7.80;99.90;;;;;;5034320;28;20041;-73
2022/01/09 00:39:40;;;;;;;25.05;3.55;;;7.80;99.90;;;;;;5032676;28;20025;-72
2022/01/09 00:42:05;;;;;;;27.38;4.53;;;7.80;99.90;;;;;;5033652;28;20360;-72
2022/01/09 00:44:31;;;;;;;23.92;4.35;;;7.80;99.90;;;;;;5033837;28;20467;-73
2022/01/09 00:47:00;;;;;;;19.17;4.07;;;7.80;99.90;;;;;;5034099;28;20109;-72
2022/01/09 00:49:26;;;;;;;30.88;4.38;;;7.80;99.90;;;;;;5033685;28;20352;-71
2022/01/09 00:51:52;;;;;;;30.88;3.97;;;7.80;99.90;;;;;;5032785;28;20030;-70
2022/01/09 00:54:18;;;;;;;26.75;3.83;;;7.80;99.90;;;;;;5032298;28;20532;-72
2022/01/09 00:56:43;;;;;;;24.63;3.03;;;7.80;99.90;;;;;;5033786;28;20398;-71
2022/01/09 00:59:09;;;;;;;16.63;3.33;;;7.80;99.90;;;;;;5033448;28;20038;-73
2022/01/09 01:01:34;;;;;;;25.98;3.88;;;7.80;99.90;;;;;;5033260;28;20387;-72
2022/01/09 01:04:00;;;;;;;23.70;3.40;;;7.80;99.90;;;;;;5032191;28;20033;-71
2022/01/09 01:06:26;;;;;;;18.50;3.78;;;7.80;99.90;;;;;;5032051;28;20400;-71
2022/01/09 01:08:51;;;;;;;21.27;2.90;;;7.70;99.90;;;;;;5033048;28;20026;-71
2022/01/09 01:11:17;;;;;;;24.65;3.38;;;7.70;99.90;;;;;;5033551;28;20440;-72
2022/01/09 01:13:43;;;;;;;25.13;3.40;;;7.80;99.90;;;;;;5032215;28;20045;-72
2022/01/09 01:16:08;;;;;;;16.60;3.20;;;7.80;99.90;;;;;;5032701;28;20053;-72
2022/01/09 01:18:34;;;;;;;23.55;4.18;;;7.80;99.90;;;;;;5033326;28;20031;-71
2022/01/09 01:21:01;;;;;;;23.27;4.18;;;7.80;99.90;;;;;;5031653;28;20387;-73
2022/01/09 01:23:27;;;;;;;23.70;3.63;;;7.80;99.90;;;;;;5031883;28;20115;-71
2022/01/09 01:25:53;;;;;;;25.95;4.03;;;7.80;99.90;;;;;;5033108;28;20155;-71
2022/01/09 01:28:19;;;;;;;26.08;3.53;;;7.80;99.90;;;;;;5033227;28;20464;-71
2022/01/09 01:30:45;;;;;;;23.98;4.15;;;7.80;99.90;;;;;;5033291;28;20022;-72
2022/01/09 01:33:11;;;;;;;16.20;3.35;;;7.80;99.90;;;;;;5031701;28;20478;-71
2022/01/09 01:35:36;;;;;;;25.67;3.67;;;7.80;99.90;;;;;;5011622;28;20042;-72
2022/01/09 01:38:02;;;;;;;25.77;3.17;;;7.90;99.90;;;;;;5013068;28;20033;-73
2022/01/09 01:40:28;;;;;;;23.40;3.80;;;7.90;99.90;;;;;;5013086;28;20029;-72
2022/01/09 01:42:53;;;;;;;29.45;3.97;;;7.90;99.90;;;;;;5011909;28;20061;-72
2022/01/09 01:45:19;;;;;;;20.73;3.58;;;7.90;99.90;;;;;;5011799;28;20357;-71
2022/01/09 01:47:45;;;;;;;22.65;3.70;;;7.90;99.90;;;;;;5011806;28;20440;-72
2022/01/09 01:50:13;;;;;;;30.73;4.38;;;7.90;99.90;;;;;;5010717;28;20521;-71
2022/01/09 01:52:44;;;;;;;29.33;3.97;;;7.90;99.90;;;;;;5009973;28;20065;-71
2022/01/09 01:55:12;;;;;;;28.10;4.75;;;7.90;99.90;;;;;;5011502;28;20203;-73
2022/01/09 01:57:40;;;;;;;19.95;3.90;;;7.90;99.90;;;;;;5011669;28;20040;-72
2022/01/09 02:00:08;;;;;;;21.55;3.70;;;7.90;99.90;;;;;;5010922;28;20029;-72
2022/01/09 02:02:33;;;;;;;26.00;4.50;;;7.90;99.90;;;;;;5011952;28;20037;-72
2022/01/09 02:04:59;;;;;;;23.55;3.95;;;7.90;99.90;;;;;;5012509;28;20026;-72
2022/01/09 02:07:27;;;;;;;11.60;2.40;;;7.90;99.90;;;;;;5012207;28;20514;-72
2022/01/09 02:09:53;;;;;;;23.83;4.32;;;7.90;99.90;;;;;;5012788;28;20030;-71
2022/01/09 02:12:19;;;;;;;24.92;5.35;;;7.90;99.90;;;;;;5012870;28;20029;-71
2022/01/09 02:14:47;;;;;;;21.35;3.13;;;7.90;99.90;;;;;;5011179;28;20053;-73
2022/01/09 02:17:20;;;;;;;29.50;3.72;;;7.90;99.90;;;;;;5012335;28;20109;-72
2022/01/09 02:19:54;;;;;;;20.05;3.88;;;7.80;99.90;;;;;;5013083;28;20018;-72
2022/01/09 02:22:19;;;;;;;20.73;3.95;;;7.90;99.90;;;;;;5011185;28;20030;-72
2022/01/09 02:24:45;;;;;;;23.33;3.40;;;7.90;99.90;;;;;;5012282;28;20033;-71
2022/01/09 02:27:10;;;;;;;23.33;3.80;;;7.90;99.90;;;;;;5010705;28;20045;-72
2022/01/09 02:29:36;;;;;;;14.85;2.33;;;7.90;99.90;;;;;;5008164;28;20022;-73
2022/01/09 02:32:02;;;;;;;20.30;3.00;;;7.90;99.90;;;;;;5010739;28;20026;-71
2022/01/09 02:34:28;;;;;;;18.00;2.90;;;7.90;99.90;;;;;;5011015;28;20030;-74
2022/01/09 02:36:54;;;;;;;19.33;3.25;;;7.90;99.90;;;;;;5009832;28;20033;-72
2022/01/09 02:39:19;;;;;;;16.08;2.65;;;7.90;99.90;;;;;;5010982;28;20022;-71
2022/01/09 02:41:45;;;;;;;14.50;2.78;;;7.90;99.90;;;;;;5011093;28;20026;-73
2022/01/09 02:44:11;;;;;;;16.20;2.25;;;7.90;99.90;;;;;;5010834;28;20049;-73
2022/01/09 02:49:11;;;;;;;14.55;2.50;;;7.90;99.90;;;;;;5011041;28;20116;-73
2022/01/09 02:51:39;;;;;;;17.55;2.88;;;7.80;99.90;;;;;;5011125;28;20034;-73
2022/01/09 02:56:49;;;;;;;21.63;2.33;;;7.80;99.90;;;;;;5010009;28;20088;-73
2022/01/09 02:59:15;;;;;;;13.85;2.67;;;7.80;99.90;;;;;;5009566;28;20029;-73
2022/01/09 03:01:41;;;;;;;21.45;3.35;;;7.80;99.90;;;;;;5011182;28;20441;-73
2022/01/09 03:04:06;;;;;;;12.07;2.25;;;7.80;99.90;;;;;;5011278;28;20109;-72
2022/01/09 03:06:32;;;;;;;16.40;4.05;;;7.80;99.90;;;;;;5010547;28;20034;-72
2022/01/09 03:09:00;;;;;;;12.70;2.42;;;7.80;99.90;;;;;;5010514;28;20030;-73
2022/01/09 03:11:26;;;;;;;20.13;2.78;;;7.80;99.90;;;;;;5010960;28;20025;-72
2022/01/09 03:13:52;;;;;;;21.67;3.30;;;7.80;99.90;;;;;;5011716;28;20034;-73
2022/01/09 03:16:19;;;;;;;22.00;2.72;;;7.70;99.90;;;;;;5014100;28;20065;-73
2022/01/09 03:18:44;;;;;;;20.77;5.00;;;7.70;99.90;;;;;;5013831;28;20595;-72
2022/01/09 03:21:10;;;;;;;18.65;3.05;;;7.70;99.90;;;;;;5014211;28;20034;-72
2022/01/09 03:23:35;;;;;;;17.73;2.85;;;7.70;99.90;;;;;;5014920;28;20353;-73
2022/01/09 03:26:02;;;;;;;21.42;2.83;;;7.70;99.90;;;;;;5014026;28;20096;-73
2022/01/09 03:28:28;;;;;;;18.77;3.08;;;7.80;99.90;;;;;;5015469;28;20072;-73
2022/01/09 03:30:54;;;;;;;21.38;3.47;;;7.80;99.90;;;;;;5015156;28;20026;-73
2022/01/09 03:33:20;;;;;;;17.27;2.78;;;7.80;99.90;;;;;;5014436;28;20030;-73
2022/01/09 03:35:45;;;;;;;18.48;2.30;;;7.90;99.90;;;;;;5014876;28;20494;-72
2022/01/09 03:38:12;;;;;;;11.27;2.38;;;7.90;99.90;;;;;;5014186;28;20033;-73
2022/01/09 03:40:38;;;;;;;12.00;2.25;;;7.90;99.90;;;;;;5015134;28;20113;-73
2022/01/09 03:43:04;;;;;;;16.17;2.67;;;7.90;99.90;;;;;;5013893;28;20124;-73
2022/01/09 03:45:29;;;;;;;21.27;3.50;;;7.90;99.90;;;;;;5014867;28;20475;-72
2022/01/09 03:47:56;;;;;;;20.15;2.35;;;7.80;99.90;;;;;;5015399;28;20490;-72
2022/01/09 03:50:22;;;;;;;15.43;3.38;;;7.80;99.90;;;;;;5015066;28;20367;-73
2022/01/09 03:52:49;;;;;;;13.13;2.40;;;7.80;99.90;;;;;;5013742;28;20034;-73
2022/01/09 03:55:17;;;;;;;13.73;2.65;;;7.80;99.90;;;;;;5015022;28;20037;-72
2022/01/09 03:57:43;;;;;;;14.25;2.38;;;7.80;99.90;;;;;;5013430;28;20034;-73
2022/01/09 04:00:13;;;;;;;19.55;2.95;;;7.80;99.90;;;;;;5013527;28;20026;-73
2022/01/09 04:02:40;;;;;;;18.25;3.30;;;7.70;99.90;;;;;;5015189;28;20034;-74
2022/01/09 04:05:06;;;;;;;13.68;2.65;;;7.70;99.90;;;;;;5014777;28;20036;-73
2022/01/09 04:07:32;;;;;;;19.77;2.63;;;7.60;99.90;;;;;;5014760;28;20026;-73
2022/01/09 04:09:58;;;;;;;15.45;2.88;;;7.50;99.90;;;;;;5013459;28;20026;-72
2022/01/09 04:13:09;;;;;;;16.60;2.40;;;7.50;99.90;;;;;;5014645;28;20037;-72
2022/01/09 04:15:10;;;;;;;18.20;2.83;;;7.50;99.90;;;;;;5007132;28;20045;-73
2022/01/09 04:17:48;;;;;;;13.43;2.35;;;7.50;99.90;;;;;;5014693;28;20056;-73
2022/01/09 04:20:14;;;;;;;16.15;2.85;;;7.50;99.90;;;;;;5014360;28;20053;-73
2022/01/09 04:22:40;;;;;;;15.00;2.95;;;7.50;99.90;;;;;;5014345;28;20053;-72
2022/01/09 04:25:06;;;;;;;12.85;2.33;;;7.50;99.90;;;;;;5013067;28;20519;-73
2022/01/09 04:27:32;;;;;;;14.63;2.40;;;7.50;99.90;;;;;;5014333;28;20045;-73
2022/01/09 04:29:58;;;;;;;20.42;3.53;;;7.50;99.90;;;;;;5012970;28;20125;-72
2022/01/09 04:32:24;;;;;;;14.45;2.38;;;7.50;99.90;;;;;;5012782;28;20109;-72
2022/01/09 04:34:50;;;;;;;16.02;2.30;;;7.50;99.90;;;;;;5014341;28;20153;-72
2022/01/09 04:37:16;;;;;;;17.85;2.90;;;7.60;99.90;;;;;;5012943;28;20041;-71
2022/01/09 04:39:43;;;;;;;21.27;3.03;;;7.60;99.90;;;;;;5014197;28;20034;-73
2022/01/09 04:42:09;;;;;;;16.17;4.10;;;7.70;99.90;;;;;;5014106;28;20026;-73
2022/01/09 04:44:35;;;;;;;10.05;2.38;;;7.60;99.90;;;;;;5012656;28;20036;-72
2022/01/09 04:47:07;;;;;;;15.93;2.55;;;7.60;99.90;;;;;;5014024;28;20105;-71
2022/01/09 04:49:38;;;;;;;;;;;7.60;99.90;;;;;;5014306;28;20557;-72
2022/01/09 04:52:06;;;;;;;14.30;3.10;;;7.60;99.90;;;;;;5012489;28;19920;-73
2022/01/09 04:54:31;;;;;;;14.90;2.60;;;7.50;99.90;;;;;;5012541;28;20049;-72
2022/01/09 04:56:57;;;;;;;5.13;1.48;;;7.50;99.90;;;;;;5013628;28;20022;-72
2022/01/09 04:59:23;;;;;;;24.45;3.13;;;7.50;99.90;;;;;;5012380;28;20029;-73
2022/01/09 05:01:48;;;;;;;15.80;3.08;;;7.60;99.90;;;;;;5013510;28;20025;-72
2022/01/09 05:04:14;;;;;;;12.68;2.17;;;7.50;99.90;;;;;;5013617;28;20026;-73
2022/01/09 05:06:39;;;;;;;19.35;4.10;;;7.50;99.90;;;;;;5013851;28;20440;-72
2022/01/09 05:09:05;;;;;;;18.42;2.85;;;7.50;99.90;;;;;;5013753;28;20117;-72
2022/01/09 05:11:30;;;;;;;12.02;2.15;;;7.50;99.90;;;;;;5013722;28;20045;-72
2022/01/09 05:13:56;;;;;;;11.73;2.10;;;7.50;99.90;;;;;;5012237;28;20543;-72
2022/01/09 05:16:22;;;;;;;16.15;2.63;;;7.50;99.90;;;;;;5012778;28;20057;-72
2022/01/09 05:18:53;;;;;;;22.17;3.42;;;7.50;99.90;;;;;;5013176;28;20116;-72
2022/01/09 05:21:19;;;;;;;12.82;2.28;;;7.50;99.90;;;;;;5013414;28;20025;-72
2022/01/09 05:23:45;;;;;;;17.08;2.60;;;7.40;99.90;;;;;;5013392;28;20045;-72
2022/01/09 05:26:10;;;;;;;18.67;3.38;;;7.40;99.90;;;;;;5011967;28;20030;-71
2022/01/09 05:28:36;;;;;;;19.02;3.00;;;7.40;99.90;;;;;;5013292;28;20053;-73
2022/01/09 05:31:02;;;;;;;10.52;2.33;;;7.40;99.90;;;;;;5011493;28;20026;-72
2022/01/09 05:33:27;;;;;;;14.45;2.33;;;7.40;99.90;;;;;;5000775;28;20027;-73
2022/01/09 05:35:53;;;;;;;15.65;2.60;;;7.40;99.90;;;;;;4999345;28;20036;-72
2022/01/09 05:38:20;;;;;;;16.60;2.30;;;7.30;99.90;;;;;;4993734;28;20444;-72
2022/01/09 05:40:46;;;;;;;13.63;2.78;;;7.30;99.90;;;;;;4997257;28;20096;-72
2022/01/09 05:43:12;;;;;;;19.20;2.95;;;7.20;99.90;;;;;;5003773;28;20468;-73
2022/01/09 05:45:38;;;;;;;17.48;2.78;;;7.20;99.90;;;;;;4995616;28;20030;-72
2022/01/09 05:48:04;;;;;;;14.40;2.83;;;7.20;99.90;;;;;;4996402;28;20466;-72
2022/01/09 05:50:29;;;;;;;9.65;1.77;;;7.20;99.90;;;;;;4995557;28;20026;-72
2022/01/09 05:52:55;;;;;;;9.57;2.45;;;7.20;99.90;;;;;;5006394;28;20033;-72
2022/01/09 05:55:21;;;;;;;12.63;1.80;;;7.20;99.90;;;;;;4994094;28;20124;-72
2022/01/09 05:57:46;;;;;;;11.55;1.85;;;7.10;99.90;;;;;;4998232;28;20026;-73
2022/01/09 06:00:14;;;;;;;5.85;1.70;;;7.10;99.90;;;;;;4992697;28;20415;-74
2022/01/09 06:02:41;;;;;;;13.70;2.40;;;7.00;99.90;;;;;;5008901;28;20022;-74
2022/01/09 06:05:07;;;;;;;18.80;3.78;;;6.90;99.90;;;;;;4993224;28;20033;-73
2022/01/09 06:07:34;;;;;;;16.85;2.53;;;6.90;99.90;;;;;;5000828;28;20496;-74
2022/01/09 06:09:59;;;;;;;11.48;2.13;;;6.80;99.90;;;;;;4992657;28;20034;-73
2022/01/09 06:12:25;;;;;;;9.70;2.35;;;6.80;99.90;;;;;;5008918;28;20053;-73
2022/01/09 06:14:51;;;;;;;11.10;1.60;;;6.80;99.90;;;;;;4992783;28;20082;-74
2022/01/09 06:17:17;;;;;;;13.40;2.75;;;6.70;99.90;;;;;;5000685;28;20026;-74
2022/01/09 06:19:43;;;;;;;10.23;1.42;;;6.60;99.90;;;;;;4993419;28;20049;-73
2022/01/09 06:22:08;;;;;;;13.65;2.47;;;6.60;99.90;;;;;;5007134;28;20059;-74
2022/01/09 06:24:34;;;;;;;7.53;1.45;;;6.50;99.90;;;;;;4994528;28;20037;-73
2022/01/09 06:26:59;;;;;;;12.80;2.60;;;6.40;99.90;;;;;;4999068;28;20033;-73
2022/01/09 06:29:25;;;;;;;10.68;1.80;;;6.40;99.90;;;;;;4992892;28;20022;-73
2022/01/09 06:31:51;;;;;;;12.75;1.67;;;6.20;99.90;;;;;;5003006;28;20387;-73
2022/01/09 06:34:16;;;;;;;10.40;2.05;;;6.20;99.90;;;;;;4997027;28;20038;-73
2022/01/09 06:36:42;;;;;;;11.63;2.92;;;6.10;99.90;;;;;;5000768;28;20056;-72
2022/01/09 06:39:08;;;;;;;14.82;2.45;;;6.10;99.90;;;;;;4993169;28;20179;-73
2022/01/09 06:41:33;;;;;;;22.13;2.95;;;6.10;99.90;;;;;;5001401;28;20037;-73
2022/01/09 06:43:59;;;;;;;16.30;2.58;;;6.00;99.90;;;;;;4999919;28;20420;-73
2022/01/09 06:46:26;;;;;;;14.32;3.10;;;6.10;99.90;;;;;;4999581;28;20105;-72
2022/01/09 06:48:52;;;;;;;8.15;1.85;;;6.20;99.90;;;;;;4994405;28;20029;-73
2022/01/09 06:51:18;;;;;;;11.10;2.83;;;6.10;99.90;;;;;;5002161;28;20076;-72
2022/01/09 06:53:44;;;;;;;13.20;2.38;;;6.20;99.90;;;;;;5006073;28;20034;-72
2022/01/09 06:56:09;;;;;;;14.93;3.10;;;6.10;99.90;;;;;;4999277;28;20045;-71
2022/01/09 06:58:37;;;;;;;12.35;2.35;;;6.10;99.90;;;;;;4999727;28;20030;-72
2022/01/09 07:01:04;;;;;;;19.50;3.17;;;6.00;99.90;;;;;;4999364;28;20022;-72
2022/01/09 07:03:30;;;;;;;19.73;2.83;;;6.00;99.90;;;;;;5007515;28;20023;-72
2022/01/09 07:05:56;;;;;;;17.33;2.60;;;6.00;99.90;;;;;;4996926;28;20033;-72
2022/01/09 07:08:21;;;;;;;17.67;3.65;;;6.00;99.90;;;;;;5001434;28;20455;-72
2022/01/09 07:10:47;;;;;;;19.05;3.75;;;6.00;99.90;;;;;;4996203;28;20026;-72
2022/01/09 07:13:13;;;;;;;22.38;3.60;;;6.00;99.90;;;;;;5010069;28;20088;-71
2022/01/09 07:15:38;;;;;;;25.75;3.47;;;6.00;99.90;;;;;;4994505;28;20058;-72
2022/01/09 07:18:04;;;;;;;13.48;3.40;;;6.00;99.90;;;;;;5002360;28;20460;-72
2022/01/09 07:20:29;;;;;;;18.67;2.75;;;6.00;99.90;;;;;;4996187;28;20096;-73
2022/01/09 07:22:55;;;;;;;20.10;3.00;;;6.00;99.90;;;;;;5011701;28;20033;-72
2022/01/09 07:25:21;;;;;;;20.50;3.80;;;6.00;99.90;;;;;;4996047;28;20025;-73
2022/01/09 07:27:47;;;;;;;23.33;3.30;;;6.00;99.90;;;;;;5003422;28;20038;-72
2022/01/09 07:30:13;;;;;;;19.98;2.80;;;6.10;99.90;;;;;;4995774;28;20061;-73
2022/01/09 07:32:40;;;;;;;16.60;2.85;;;6.20;99.90;;;;;;5010332;28;20053;-72
2022/01/09 07:35:06;;;;;;;12.27;2.53;;;6.20;99.90;;;;;;4995325;28;20045;-72
2022/01/09 07:37:32;;;;;;;9.90;2.33;;;6.10;99.90;;;;;;5003223;28;20030;-73
2022/01/09 07:39:59;;;;;;;18.13;2.75;;;6.20;99.90;;;;;;4995193;28;20030;-73
2022/01/09 07:42:25;;;;;;;9.70;2.40;;;6.20;99.90;;;;;;5007321;28;20045;-74
2022/01/09 07:44:51;;;;;;;10.48;2.08;;;6.30;99.90;;;;;;4999315;28;20038;-74
2022/01/09 07:47:16;;;;;;;13.00;2.17;;;6.30;99.90;;;;;;5003415;28;20554;-73
2022/01/09 07:49:42;;;;;;;12.18;2.53;;;6.30;99.90;;;;;;4995201;28;20054;-73
2022/01/09 07:52:08;;;;;;;11.23;2.60;;;6.30;99.90;;;;;;5004451;28;20057;-73
2022/01/09 07:54:33;;;;;;;16.70;2.35;;;6.30;99.90;;;;;;5001789;28;20124;-73
2022/01/09 07:56:59;;;;;;;15.73;2.67;;;6.30;99.90;;;;;;5002799;28;20066;-74
2022/01/09 07:59:24;;;;;;;14.48;2.70;;;6.20;99.90;;;;;;4994682;28;20388;-73
2022/01/09 08:01:50;;;;;;;13.93;2.88;;;6.20;99.90;;;;;;5001337;28;20041;-73
2022/01/09 08:04:16;;;;;;;17.35;3.03;;;6.10;99.90;;;;;;5004354;28;20037;-73
2022/01/09 08:06:42;;;;;;;12.80;2.50;;;6.10;99.90;;;;;;4999983;28;20476;-72
2022/01/09 08:09:08;;;;;;;22.38;3.30;;;6.10;99.90;;;;;;4997311;28;20100;-72
2022/01/09 08:11:33;;;;;;;16.55;2.50;;;6.10;99.90;;;;;;4998269;28;20059;-72
2022/01/09 08:13:59;;;;;;;18.23;2.67;;;6.20;99.90;;;;;;5006721;28;20057;-73
2022/01/09 08:16:25;;;;;;;15.52;2.92;;;6.20;99.90;;;;;;4996961;28;20422;-72
2022/01/09 08:18:51;;;;;;;18.25;3.10;;;6.10;99.90;;;;;;5000652;28;20069;-72
2022/01/09 08:21:19;;;;;;;20.83;2.38;;;6.20;99.90;;;;;;4995434;28;20026;-72
2022/01/09 08:23:47;;;;;;;16.77;2.90;;;6.20;99.90;;;;;;5009403;28;20081;-73
2022/01/09 08:26:13;;;;;;;12.60;2.30;;;6.20;99.90;;;;;;4994729;28;20030;-73
2022/01/09 08:28:41;;;;;;;14.73;2.92;;;6.20;99.90;;;;;;4994469;28;20060;-72
2022/01/09 08:31:08;;;;;;;22.30;2.80;;;6.30;99.90;;;;;;4993096;28;20461;-73
2022/01/09 08:33:33;;;;;;;10.13;2.40;;;6.30;99.90;;;;;;5009805;28;20031;-73
2022/01/09 08:35:59;;;;;;;13.45;2.10;;;6.30;99.90;;;;;;4992676;28;20065;-72
2022/01/09 08:38:25;;;;;;;14.90;2.70;;;6.30;99.90;;;;;;5002129;28;20027;-71
2022/01/09 08:40:51;;;;;;;12.05;2.38;;;6.40;99.90;;;;;;4994341;28;20033;-71
2022/01/09 08:43:16;;;;;;;17.92;2.40;;;6.50;99.90;;;;;;5009974;28;20128;-73
2022/01/09 08:45:42;;;;;;;18.10;2.35;;;6.60;99.90;;;;;;4994030;28;20030;-72
2022/01/09 08:48:07;;;;;;;15.98;2.25;;;6.60;99.90;;;;;;5000515;28;20110;-72
2022/01/09 08:50:33;;;;;;;13.80;1.90;;;6.70;99.90;;;;;;4992931;28;20034;-73
2022/01/09 08:52:59;;;;;;;16.75;2.97;;;6.70;99.90;;;;;;5007156;28;20026;-72
2022/01/09 08:55:25;;;;;;;17.15;2.83;;;6.80;99.90;;;;;;4996537;28;20057;-72
2022/01/09 08:57:50;;;;;;;19.65;2.70;;;6.80;99.90;;;;;;5001910;28;20030;-71
2022/01/09 09:00:18;;;;;;;17.90;2.80;;;6.90;99.90;;;;;;5003389;28;20030;-72
2022/01/09 09:02:44;;;;;;;16.63;2.80;;;6.90;99.90;;;;;;5009832;28;20362;-73
2022/01/09 09:05:10;;;;;;;18.92;3.40;;;6.90;99.90;;;;;;4999244;28;20184;-72
2022/01/09 09:07:35;;;;;;;17.55;2.55;;;7.00;99.90;;;;;;5001071;28;20026;-71
2022/01/09 09:10:03;;;;;;;27.58;5.50;;;7.00;99.90;;;;;;4993554;28;20019;-71
2022/01/09 09:12:29;;;;;;;14.52;2.45;;;7.10;99.90;;;;;;4998807;28;20053;-73
2022/01/09 09:14:55;;;;;;;13.00;2.50;;;7.20;99.90;;;;;;4999890;28;20065;-73
2022/01/09 09:17:21;;;;;;;20.73;3.28;;;7.30;99.90;;;;;;4998825;28;20033;-74
2022/01/09 09:19:47;;;;;;;16.40;2.53;;;7.40;99.90;;;;;;4995135;28;20029;-75
2022/01/09 09:22:12;;;;;;;14.73;2.35;;;7.50;99.90;;;;;;4998376;28;20125;-74
2022/01/09 09:24:38;;;;;;;17.05;3.17;;;7.50;99.90;;;;;;5004431;28;20042;-74
2022/01/09 09:27:04;;;;;;;13.00;2.60;;;7.40;99.90;;;;;;4997062;28;20533;-74
2022/01/09 09:29:30;;;;;;;18.90;2.90;;;7.40;99.90;;;;;;4997414;28;20022;-74
2022/01/09 09:31:56;;;;;;;29.33;3.58;;;7.30;99.90;;;;;;4995335;28;20057;-74
2022/01/09 09:34:21;;;;;;;15.48;3.08;;;7.40;99.90;;;;;;5006799;28;20030;-73
2022/01/09 09:36:47;;;;;;;21.33;3.28;;;7.40;99.90;;;;;;4993999;28;20122;-74
2022/01/09 09:39:13;;;;;;;23.25;4.03;;;7.50;99.90;;;;;;4999758;28;20423;-73
2022/01/09 09:41:41;;;;;;;19.13;2.92;;;7.50;99.90;;;;;;4992947;28;20026;-73
2022/01/09 09:44:10;;;;;;;25.00;3.13;;;7.50;99.90;;;;;;5009000;28;20030;-71
2022/01/09 09:46:37;;;;;;;20.15;3.00;;;7.60;99.90;;;;;;4993563;28;20057;-72
2022/01/09 09:49:03;;;;;;;14.15;2.83;;;7.70;99.90;;;;;;4999647;28;20073;-73
2022/01/09 09:51:30;;;;;;;17.80;2.80;;;7.70;99.90;;;;;;4991408;28;20436;-72
2022/01/09 09:53:57;;;;;;;18.55;2.78;;;7.70;99.90;;;;;;4993292;28;20018;-73
2022/01/09 09:56:23;;;;;;;18.15;2.78;;;7.70;99.90;;;;;;4993407;28;20030;-72
2022/01/09 09:58:52;;;;;;;12.77;2.65;;;7.70;99.90;;;;;;4993491;28;20042;-72
2022/01/09 10:01:30;;;;;;;19.77;3.13;;;7.80;99.90;;;;;;4993236;28;20033;-72
2022/01/09 10:03:58;;;;;;;21.52;3.53;;;7.80;99.90;;;;;;4993108;28;20031;-73
2022/01/09 10:06:41;;;;;;;24.83;4.47;;;7.90;99.90;;;;;;4993383;28;20030;-73
2022/01/09 10:09:09;;;;;;;15.68;2.67;;;8.10;99.90;;;;;;4993293;28;20026;-73
2022/01/09 10:11:53;;;;;;;13.50;2.78;;;8.40;99.90;;;;;;4993238;28;20081;-73
2022/01/09 10:14:29;;;;;;;13.23;2.65;;;8.50;99.90;;;;;;4992944;28;20407;-73
2022/01/09 10:17:06;;;;;;;13.38;2.70;;;8.50;99.90;;;;;;4991917;28;20030;-73
2022/01/09 10:19:56;;;;;;;10.80;2.70;;;8.40;99.90;;;;;;4993184;28;20460;-73
2022/01/09 10:22:36;;;;;;;14.60;2.22;;;8.40;99.90;;;;;;4993319;28;20041;-73
2022/01/09 10:25:20;;;;;;;17.95;2.50;;;8.40;99.90;;;;;;4997191;28;20491;-73
2022/01/09 10:27:47;;;;;;;18.73;2.90;;;8.40;99.90;;;;;;4997161;28;20805;-73
2022/01/09 10:30:13;;;;;;;13.80;2.58;;;8.40;99.90;;;;;;4996913;28;20243;-73
2022/01/09 10:32:39;;;;;;;14.43;2.30;;;8.30;99.90;;;;;;4997441;28;20449;-73
2022/01/09 10:35:16;;;;;;;13.05;2.08;;;8.30;99.90;;;;;;4997020;28;20042;-73
2022/01/09 10:38:22;;;;;;;14.18;2.67;;;8.60;99.90;;;;;;4996986;28;20092;-74
2022/01/09 10:41:08;;;;;;;14.98;3.10;;;9.00;99.90;;;;;;4997209;28;20125;-73
2022/01/09 10:43:37;;;;;;;13.77;2.80;;;9.50;99.90;;;;;;4997161;28;20176;-72
2022/01/09 10:46:03;;;;;;;18.13;3.22;;;9.90;99.90;;;;;;4996864;28;20030;-72
2022/01/09 10:48:41;;;;;;;15.13;2.40;;;10.40;99.90;;;;;;4996714;28;20034;-72
2022/01/09 10:51:12;;;;;;;8.77;1.50;;;10.90;99.90;;;;;;4995518;28;20401;-73
2022/01/09 10:53:40;;;;;;;6.88;1.70;;;11.20;99.90;;;;;;4996859;28;20026;-74
2022/01/09 10:56:06;;;;;;;8.93;1.48;;;10.90;99.90;;;;;;4996155;28;20038;-74
2022/01/09 10:58:38;;;;;;;4.22;0.60;;;10.40;99.90;;;;;;4995717;28;20042;-74
2022/01/09 11:01:13;;;;;;;4.38;1.05;;;9.70;99.90;;;;;;4995136;28;20034;-74
2022/01/09 11:03:41;;;;;;;14.27;1.70;;;9.00;99.90;;;;;;4996309;28;20070;-73
2022/01/09 11:06:09;;;;;;;9.43;2.50;;;8.60;99.90;;;;;;4996849;28;20072;-74
2022/01/09 11:08:36;;;;;;;9.75;2.20;;;8.10;99.90;;;;;;4996322;28;20041;-73
2022/01/09 11:11:06;;;;;;;6.75;1.50;;;7.70;99.90;;;;;;5004745;28;20076;-74
2022/01/09 11:13:35;;;;;;;7.50;1.27;;;7.30;99.90;;;;;;5002878;28;20046;-73
2022/01/09 11:18:47;;;;;;;12.18;2.03;;;6.80;99.90;;;;;;5010447;28;20498;-75
2022/01/09 11:21:13;;;;;;;9.07;2.55;;;6.60;99.90;;;;;;4995900;28;20097;-74
2022/01/09 11:24:22;;;;;;;9.70;1.98;;;6.60;99.90;;;;;;4995099;28;20030;-74
2022/01/09 11:26:54;;;;;;;16.90;2.47;;;6.50;99.90;;;;;;5001377;28;20026;-74
2022/01/09 11:29:35;;;;;;;;;;;6.50;99.90;;;;;;5005443;28;20026;-73
2022/01/09 11:32:44;;;;;;;11.82;2.53;;;6.50;99.90;;;;;;4999501;28;19906;-74
2022/01/09 11:35:33;;;;;;;22.30;3.78;;;6.50;99.90;;;;;;5001812;28;20041;-73
2022/01/09 11:38:20;;;;;;;20.20;2.80;;;6.60;99.90;;;;;;4999904;28;20457;-75
2022/01/09 11:40:46;;;;;;;15.05;2.78;;;6.70;99.90;;;;;;5008862;28;20034;-75
2022/01/09 11:43:14;;;;;;;18.25;2.92;;;6.70;99.90;;;;;;5010303;28;20018;-74
2022/01/09 11:45:50;;;;;;;24.17;3.67;;;6.80;99.90;;;;;;5011256;28;20415;-73
2022/01/09 11:48:39;;;;;;;21.63;3.38;;;6.90;99.90;;;;;;5011882;28;20125;-73
2022/01/09 11:51:05;;;;;;;24.23;3.22;;;7.00;99.90;;;;;;4985799;28;20026;-74
2022/01/09 11:53:56;;;;;;;18.98;3.22;;;7.20;99.90;;;;;;4995274;28;20487;-75
2022/01/09 11:56:50;;;;;;;17.23;3.08;;;7.40;99.90;;;;;;5010878;28;20121;-73
2022/01/09 11:59:34;;;;;;;23.80;3.50;;;7.80;99.90;;;;;;5026746;28;20018;-74
2022/01/09 12:02:12;;;;;;;24.02;3.20;;;8.00;99.90;;;;;;4993935;28;20027;-74
2022/01/09 12:04:41;;;;;;;16.70;3.30;;;8.10;99.90;;;;;;4997226;28;20033;-73
2022/01/09 12:07:07;;;;;;;15.93;2.65;;;8.20;99.90;;;;;;5007014;28;20125;-74
2022/01/09 12:09:35;;;;;;;23.67;3.72;;;8.30;99.90;;;;;;4996704;28;20057;-72
2022/01/09 12:12:03;;;;;;;20.27;3.00;;;8.50;99.90;;;;;;5000986;28;20460;-72
2022/01/09 12:15:08;;;;;;;20.85;3.30;;;9.00;99.90;;;;;;4995099;28;20082;-75
2022/01/09 12:17:34;;;;;;;17.85;2.85;;;9.30;99.90;;;;;;5003343;28;20062;-73
2022/01/09 12:20:08;;;;;;;19.90;3.20;;;9.70;99.90;;;;;;4998120;28;20018;-74
2022/01/09 12:22:43;;;;;;;16.10;2.47;;;10.00;99.90;;;;;;4996772;28;20045;-74
2022/01/09 12:25:30;;;;;;;19.52;4.68;;;10.40;99.90;;;;;;4998852;28;20100;-73
2022/01/09 12:28:15;;;;;;;12.48;2.90;;;10.50;99.90;;;;;;5001777;28;20062;-73
2022/01/09 12:31:08;;;;;;;18.00;2.55;;;10.70;99.90;;;;;;5003164;28;20049;-73
2022/01/09 12:34:12;;;;;;;19.40;3.15;;;10.80;99.90;;;;;;5013668;28;20061;-75
2022/01/09 12:36:40;;;;;;;16.60;2.95;;;10.70;99.90;;;;;;5013003;28;20092;-73
2022/01/09 12:39:07;;;;;;;17.48;3.05;;;10.80;99.90;;;;;;5008204;28;20022;-72
2022/01/09 12:41:36;;;;;;;15.88;2.40;;;10.90;99.90;;;;;;5014033;28;20021;-71
2022/01/09 12:44:08;;;;;;;15.93;2.60;;;10.80;99.90;;;;;;5012642;28;20121;-73
2022/01/09 12:46:35;;;;;;;19.25;2.95;;;10.70;99.90;;;;;;5013123;28;20053;-72
2022/01/09 12:49:06;;;;;;;14.35;2.85;;;10.60;99.90;;;;;;5014024;28;20030;-73
2022/01/09 12:51:33;;;;;;;17.77;3.47;;;10.50;99.90;;;;;;5013715;28;20075;-73
2022/01/09 12:54:05;;;;;;;13.27;2.25;;;10.30;99.90;;;;;;5014037;28;20029;-73
2022/01/09 12:56:36;;;;;;;19.15;3.33;;;10.10;99.90;;;;;;5013684;28;20494;-73
2022/01/09 12:59:10;;;;;;;15.20;2.47;;;9.90;99.90;;;;;;5012888;28;20168;-73
2022/01/09 13:01:48;;;;;;;18.02;2.28;;;9.80;99.90;;;;;;5013664;28;20033;-72